sensor_id;sensor_type;location;lat;lon;timestamp;P1;durP1;ratioP1;P2;durP2;ratioP2
35552;SDS011;21656;46.054;13.614;2023-02-01T07:16:37;16.85;;;9.55;;
35552;SDS011;21656;46.054;13.614;2023-02-01T07:19:03;20.65;;;9.65;;
35552;SDS011;21656;46.054;13.614;2023-02-01T07:21:29;20.50;;;9.98;;
35552;SDS011;21656;46.054;13.614;2023-02-01T07:23:54;24.50;;;11.40;;
35552;SDS011;21656;46.054;13.614;2023-02-01T07:26:20;21.88;;;10.18;;
35552;SDS011;21656;46.054;13.614;2023-02-01T07:28:45;20.58;;;9.15;;
35552;SDS011;21656;46.054;13.614;2023-02-01T07:31:15;20.33;;;9.32;;
35552;SDS011;21656;46.054;13.614;2023-02-01T07:33:43;18.45;;;9.93;;
35552;SDS011;21656;46.054;13.614;2023-02-01T07:36:16;25.23;;;12.50;;
35552;SDS011;21656;46.054;13.614;2023-02-01T07:38:42;25.55;;;11.70;;
35552;SDS011;21656;46.054;13.614;2023-02-01T07:41:08;24.23;;;10.82;;
35552;SDS011;21656;46.054;13.614;2023-02-01T07:43:34;24.20;;;10.48;;
35552;SDS011;21656;46.054;13.614;2023-02-01T07:46:00;25.40;;;10.68;;
35552;SDS011;21656;46.054;13.614;2023-02-01T07:48:26;25.23;;;9.75;;
35552;SDS011;21656;46.054;13.614;2023-02-01T07:51:05;21.20;;;10.02;;
35552;SDS011;21656;46.054;13.614;2023-02-01T07:53:34;19.08;;;9.95;;
35552;SDS011;21656;46.054;13.614;2023-02-01T07:56:01;21.98;;;10.77;;
35552;SDS011;21656;46.054;13.614;2023-02-01T07:58:27;20.20;;;10.23;;
35552;SDS011;21656;46.054;13.614;2023-02-01T08:00:53;20.27;;;10.13;;
35552;SDS011;21656;46.054;13.614;2023-02-01T08:03:38;22.08;;;9.70;;
35552;SDS011;21656;46.054;13.614;2023-02-01T08:06:04;24.42;;;10.57;;
35552;SDS011;21656;46.054;13.614;2023-02-01T08:08:30;22.30;;;9.95;;
35552;SDS011;21656;46.054;13.614;2023-02-01T08:11:02;22.67;;;10.27;;
35552;SDS011;21656;46.054;13.614;2023-02-01T08:13:29;25.02;;;10.57;;
35552;SDS011;21656;46.054;13.614;2023-02-01T08:16:01;22.02;;;10.70;;
35552;SDS011;21656;46.054;13.614;2023-02-01T08:18:29;24.50;;;10.50;;
35552;SDS011;21656;46.054;13.614;2023-02-01T08:20:55;19.55;;;9.27;;
35552;SDS011;21656;46.054;13.614;2023-02-01T08:23:21;27.38;;;11.55;;
35552;SDS011;21656;46.054;13.614;2023-02-01T08:25:48;21.13;;;10.27;;
35552;SDS011;21656;46.054;13.614;2023-02-01T08:28:13;32.55;;;11.05;;
35552;SDS011;21656;46.054;13.614;2023-02-01T08:30:39;27.65;;;11.02;;
35552;SDS011;21656;46.054;13.614;2023-02-01T08:33:07;23.33;;;10.77;;
35552;SDS011;21656;46.054;13.614;2023-02-01T08:35:36;18.50;;;9.48;;
35552;SDS011;21656;46.054;13.614;2023-02-01T08:38:03;22.30;;;11.27;;
35552;SDS011;21656;46.054;13.614;2023-02-01T08:40:28;24.33;;;10.05;;
35552;SDS011;21656;46.054;13.614;2023-02-01T08:42:54;21.73;;;10.10;;
35552;SDS011;21656;46.054;13.614;2023-02-01T08:45:24;18.77;;;10.43;;
35552;SDS011;21656;46.054;13.614;2023-02-01T08:47:51;21.30;;;9.70;;
35552;SDS011;21656;46.054;13.614;2023-02-01T08:50:17;18.45;;;9.93;;
35552;SDS011;21656;46.054;13.614;2023-02-01T08:52:44;21.45;;;9.73;;
35552;SDS011;21656;46.054;13.614;2023-02-01T08:55:09;22.02;;;10.73;;
35552;SDS011;21656;46.054;13.614;2023-02-01T08:57:35;26.67;;;10.18;;
35552;SDS011;21656;46.054;13.614;2023-02-01T09:00:01;27.85;;;10.70;;
35552;SDS011;21656;46.054;13.614;2023-02-01T09:02:28;25.27;;;10.73;;
35552;SDS011;21656;46.054;13.614;2023-02-01T09:04:55;31.90;;;10.98;;
35552;SDS011;21656;46.054;13.614;2023-02-01T09:07:21;26.98;;;10.85;;
35552;SDS011;21656;46.054;13.614;2023-02-01T09:09:46;23.85;;;9.68;;
35552;SDS011;21656;46.054;13.614;2023-02-01T09:12:12;31.42;;;11.00;;
35552;SDS011;21656;46.054;13.614;2023-02-01T09:14:37;28.08;;;10.75;;
35552;SDS011;21656;46.054;13.614;2023-02-01T09:17:03;31.70;;;10.38;;
35552;SDS011;21656;46.054;13.614;2023-02-01T09:19:30;22.83;;;10.75;;
35552;SDS011;21656;46.054;13.614;2023-02-01T09:21:56;22.08;;;10.38;;
35552;SDS011;21656;46.054;13.614;2023-02-01T09:24:21;24.55;;;10.10;;
35552;SDS011;21656;46.054;13.614;2023-02-01T09:26:47;21.00;;;9.65;;
35552;SDS011;21656;46.054;13.614;2023-02-01T09:29:13;26.33;;;9.65;;
35552;SDS011;21656;46.054;13.614;2023-02-01T09:31:39;25.42;;;9.93;;
35552;SDS011;21656;46.054;13.614;2023-02-01T09:34:05;27.58;;;10.52;;
35552;SDS011;21656;46.054;13.614;2023-02-01T09:36:31;23.77;;;9.48;;
35552;SDS011;21656;46.054;13.614;2023-02-01T09:38:57;21.00;;;9.93;;
35552;SDS011;21656;46.054;13.614;2023-02-01T09:47:02;29.92;;;10.63;;
35552;SDS011;21656;46.054;13.614;2023-02-01T09:49:32;18.88;;;9.00;;
35552;SDS011;21656;46.054;13.614;2023-02-01T09:52:02;20.73;;;9.55;;
35552;SDS011;21656;46.054;13.614;2023-02-01T09:54:41;24.33;;;10.20;;
35552;SDS011;21656;46.054;13.614;2023-02-01T09:57:16;26.05;;;10.25;;
35552;SDS011;21656;46.054;13.614;2023-02-01T09:59:49;23.13;;;10.15;;
35552;SDS011;21656;46.054;13.614;2023-02-01T10:02:26;20.70;;;9.63;;
35552;SDS011;21656;46.054;13.614;2023-02-01T10:04:54;20.98;;;9.23;;
35552;SDS011;21656;46.054;13.614;2023-02-01T10:10:04;24.65;;;10.70;;
35552;SDS011;21656;46.054;13.614;2023-02-01T10:15:35;27.85;;;11.95;;
35552;SDS011;21656;46.054;13.614;2023-02-01T10:21:07;22.27;;;11.25;;
35552;SDS011;21656;46.054;13.614;2023-02-01T10:26:42;28.52;;;11.70;;
35552;SDS011;21656;46.054;13.614;2023-02-01T10:29:18;25.83;;;13.00;;
35552;SDS011;21656;46.054;13.614;2023-02-01T10:31:45;30.73;;;13.88;;
35552;SDS011;21656;46.054;13.614;2023-02-01T10:41:02;30.70;;;12.13;;
35552;SDS011;21656;46.054;13.614;2023-02-01T10:43:36;24.63;;;11.38;;
35552;SDS011;21656;46.054;13.614;2023-02-01T10:46:04;21.48;;;11.65;;
35552;SDS011;21656;46.054;13.614;2023-02-01T10:48:30;23.30;;;11.57;;
35552;SDS011;21656;46.054;13.614;2023-02-01T10:53:45;26.52;;;13.93;;
35552;SDS011;21656;46.054;13.614;2023-02-01T10:56:18;19.60;;;11.35;;
35552;SDS011;21656;46.054;13.614;2023-02-01T10:58:50;21.65;;;11.10;;
35552;SDS011;21656;46.054;13.614;2023-02-01T11:01:27;28.88;;;11.90;;
35552;SDS011;21656;46.054;13.614;2023-02-01T11:04:02;25.75;;;11.40;;
35552;SDS011;21656;46.054;13.614;2023-02-01T11:08:58;26.17;;;11.93;;
35552;SDS011;21656;46.054;13.614;2023-02-01T11:11:26;24.33;;;11.55;;
35552;SDS011;21656;46.054;13.614;2023-02-01T11:14:13;29.15;;;12.95;;
35552;SDS011;21656;46.054;13.614;2023-02-01T11:16:40;29.88;;;12.88;;
35552;SDS011;21656;46.054;13.614;2023-02-01T11:19:14;28.95;;;13.13;;
35552;SDS011;21656;46.054;13.614;2023-02-01T11:21:40;27.33;;;13.18;;
35552;SDS011;21656;46.054;13.614;2023-02-01T11:24:11;31.98;;;16.02;;
35552;SDS011;21656;46.054;13.614;2023-02-01T11:26:50;39.35;;;14.30;;
35552;SDS011;21656;46.054;13.614;2023-02-01T11:29:18;33.22;;;14.73;;
35552;SDS011;21656;46.054;13.614;2023-02-01T11:31:47;33.67;;;15.35;;
35552;SDS011;21656;46.054;13.614;2023-02-01T11:34:14;30.17;;;15.85;;
35552;SDS011;21656;46.054;13.614;2023-02-01T11:36:42;28.40;;;13.65;;
35552;SDS011;21656;46.054;13.614;2023-02-01T11:39:28;28.23;;;12.35;;
35552;SDS011;21656;46.054;13.614;2023-02-01T11:42:01;26.50;;;13.07;;
35552;SDS011;21656;46.054;13.614;2023-02-01T11:44:41;25.30;;;11.98;;
35552;SDS011;21656;46.054;13.614;2023-02-01T11:47:27;27.58;;;13.27;;
35552;SDS011;21656;46.054;13.614;2023-02-01T11:49:57;25.90;;;12.60;;
35552;SDS011;21656;46.054;13.614;2023-02-01T11:57:59;30.13;;;14.00;;
35552;SDS011;21656;46.054;13.614;2023-02-01T12:30:56;31.63;;;17.17;;
35552;SDS011;21656;46.054;13.614;2023-02-01T12:38:32;32.80;;;16.70;;
35552;SDS011;21656;46.054;13.614;2023-02-01T12:44:09;38.10;;;17.60;;
35552;SDS011;21656;46.054;13.614;2023-02-01T12:46:59;34.10;;;16.33;;
35552;SDS011;21656;46.054;13.614;2023-02-01T12:49:53;40.88;;;23.05;;
35552;SDS011;21656;46.054;13.614;2023-02-01T12:52:26;41.58;;;20.08;;
35552;SDS011;21656;46.054;13.614;2023-02-01T12:55:20;39.53;;;21.08;;
35552;SDS011;21656;46.054;13.614;2023-02-01T12:58:37;36.15;;;19.33;;
35552;SDS011;21656;46.054;13.614;2023-02-01T13:00:40;36.35;;;18.73;;
35552;SDS011;21656;46.054;13.614;2023-02-01T13:03:13;37.90;;;18.17;;
35552;SDS011;21656;46.054;13.614;2023-02-01T13:08:23;39.10;;;20.23;;
35552;SDS011;21656;46.054;13.614;2023-02-01T13:14:00;38.78;;;18.90;;
35552;SDS011;21656;46.054;13.614;2023-02-01T13:16:37;35.75;;;18.83;;
35552;SDS011;21656;46.054;13.614;2023-02-01T13:21:39;34.95;;;17.83;;
35552;SDS011;21656;46.054;13.614;2023-02-01T13:24:24;30.83;;;17.52;;
35552;SDS011;21656;46.054;13.614;2023-02-01T13:27:16;34.53;;;18.83;;
35552;SDS011;21656;46.054;13.614;2023-02-01T13:29:48;35.70;;;18.30;;
35552;SDS011;21656;46.054;13.614;2023-02-01T13:35:11;44.92;;;23.35;;
35552;SDS011;21656;46.054;13.614;2023-02-01T13:42:53;41.60;;;21.30;;
35552;SDS011;21656;46.054;13.614;2023-02-01T13:45:30;37.72;;;20.52;;
35552;SDS011;21656;46.054;13.614;2023-02-01T13:48:00;37.20;;;19.23;;
35552;SDS011;21656;46.054;13.614;2023-02-01T13:50:36;34.65;;;19.20;;
35552;SDS011;21656;46.054;13.614;2023-02-01T13:55:46;44.03;;;21.92;;
35552;SDS011;21656;46.054;13.614;2023-02-01T14:03:59;43.45;;;23.02;;
35552;SDS011;21656;46.054;13.614;2023-02-01T14:11:33;46.53;;;25.45;;
35552;SDS011;21656;46.054;13.614;2023-02-01T14:16:42;52.25;;;27.23;;
35552;SDS011;21656;46.054;13.614;2023-02-01T14:19:31;53.53;;;28.20;;
35552;SDS011;21656;46.054;13.614;2023-02-01T14:21:59;52.40;;;27.45;;
35552;SDS011;21656;46.054;13.614;2023-02-01T14:24:30;42.22;;;24.60;;
35552;SDS011;21656;46.054;13.614;2023-02-01T14:26:58;58.42;;;29.40;;
35552;SDS011;21656;46.054;13.614;2023-02-01T14:29:36;70.50;;;39.38;;
35552;SDS011;21656;46.054;13.614;2023-02-01T14:47:50;50.03;;;25.95;;
35552;SDS011;21656;46.054;13.614;2023-02-01T14:50:20;63.00;;;31.45;;
35552;SDS011;21656;46.054;13.614;2023-02-01T14:52:50;62.85;;;33.22;;
35552;SDS011;21656;46.054;13.614;2023-02-01T14:55:29;55.83;;;28.27;;
35552;SDS011;21656;46.054;13.614;2023-02-01T15:04:00;58.05;;;30.02;;
35552;SDS011;21656;46.054;13.614;2023-02-01T15:14:42;55.17;;;26.60;;
35552;SDS011;21656;46.054;13.614;2023-02-01T15:17:18;42.97;;;24.27;;
35552;SDS011;21656;46.054;13.614;2023-02-01T15:22:24;41.78;;;22.67;;
35552;SDS011;21656;46.054;13.614;2023-02-01T15:24:54;42.88;;;22.10;;
35552;SDS011;21656;46.054;13.614;2023-02-01T15:27:22;40.88;;;21.42;;
35552;SDS011;21656;46.054;13.614;2023-02-01T15:29:48;43.38;;;22.60;;
35552;SDS011;21656;46.054;13.614;2023-02-01T15:32:33;38.72;;;20.02;;
35552;SDS011;21656;46.054;13.614;2023-02-01T15:35:00;39.08;;;21.13;;
35552;SDS011;21656;46.054;13.614;2023-02-01T15:37:26;43.80;;;21.23;;
35552;SDS011;21656;46.054;13.614;2023-02-01T15:40:14;40.47;;;20.65;;
35552;SDS011;21656;46.054;13.614;2023-02-01T15:42:57;44.97;;;21.38;;
35552;SDS011;21656;46.054;13.614;2023-02-01T15:45:28;35.63;;;18.85;;
35552;SDS011;21656;46.054;13.614;2023-02-01T15:47:57;37.50;;;18.95;;
35552;SDS011;21656;46.054;13.614;2023-02-01T15:50:24;39.28;;;19.65;;
35552;SDS011;21656;46.054;13.614;2023-02-01T15:52:50;37.90;;;19.63;;
35552;SDS011;21656;46.054;13.614;2023-02-01T15:55:34;42.20;;;19.80;;
35552;SDS011;21656;46.054;13.614;2023-02-01T15:58:09;42.55;;;19.73;;
35552;SDS011;21656;46.054;13.614;2023-02-01T16:00:43;40.50;;;19.83;;
35552;SDS011;21656;46.054;13.614;2023-02-01T16:03:24;34.78;;;19.58;;
35552;SDS011;21656;46.054;13.614;2023-02-01T16:05:57;41.65;;;19.27;;
35552;SDS011;21656;46.054;13.614;2023-02-01T16:08:25;39.95;;;21.33;;
35552;SDS011;21656;46.054;13.614;2023-02-01T16:11:14;38.97;;;20.35;;
35552;SDS011;21656;46.054;13.614;2023-02-01T16:13:38;42.20;;;20.55;;
35552;SDS011;21656;46.054;13.614;2023-02-01T16:16:03;45.30;;;21.88;;
35552;SDS011;21656;46.054;13.614;2023-02-01T16:18:32;48.08;;;20.65;;
35552;SDS011;21656;46.054;13.614;2023-02-01T16:20:58;38.78;;;20.92;;
35552;SDS011;21656;46.054;13.614;2023-02-01T16:23:23;43.35;;;22.58;;
35552;SDS011;21656;46.054;13.614;2023-02-01T16:25:48;47.88;;;21.63;;
35552;SDS011;21656;46.054;13.614;2023-02-01T16:28:14;50.50;;;23.65;;
35552;SDS011;21656;46.054;13.614;2023-02-01T16:30:39;39.28;;;21.30;;
35552;SDS011;21656;46.054;13.614;2023-02-01T16:33:05;41.03;;;20.02;;
35552;SDS011;21656;46.054;13.614;2023-02-01T16:35:35;42.95;;;20.58;;
35552;SDS011;21656;46.054;13.614;2023-02-01T16:38:05;45.53;;;21.77;;
35552;SDS011;21656;46.054;13.614;2023-02-01T16:40:38;55.47;;;24.13;;
35552;SDS011;21656;46.054;13.614;2023-02-01T16:43:20;53.85;;;24.35;;
35552;SDS011;21656;46.054;13.614;2023-02-01T16:45:48;51.70;;;22.95;;
35552;SDS011;21656;46.054;13.614;2023-02-01T16:50:54;45.88;;;19.98;;
35552;SDS011;21656;46.054;13.614;2023-02-01T16:53:22;45.58;;;22.48;;
35552;SDS011;21656;46.054;13.614;2023-02-01T16:55:48;42.67;;;20.15;;
35552;SDS011;21656;46.054;13.614;2023-02-01T16:58:15;44.78;;;20.83;;
35552;SDS011;21656;46.054;13.614;2023-02-01T17:00:41;43.80;;;20.25;;
35552;SDS011;21656;46.054;13.614;2023-02-01T17:03:09;36.55;;;19.60;;
35552;SDS011;21656;46.054;13.614;2023-02-01T17:05:36;58.78;;;27.13;;
35552;SDS011;21656;46.054;13.614;2023-02-01T17:08:03;66.65;;;33.67;;
35552;SDS011;21656;46.054;13.614;2023-02-01T17:10:31;86.70;;;44.00;;
35552;SDS011;21656;46.054;13.614;2023-02-01T17:12:57;55.75;;;30.23;;
35552;SDS011;21656;46.054;13.614;2023-02-01T17:15:23;52.60;;;28.17;;
35552;SDS011;21656;46.054;13.614;2023-02-01T17:17:52;43.47;;;23.45;;
35552;SDS011;21656;46.054;13.614;2023-02-01T17:20:20;53.90;;;24.42;;
35552;SDS011;21656;46.054;13.614;2023-02-01T17:22:48;51.65;;;25.63;;
35552;SDS011;21656;46.054;13.614;2023-02-01T17:25:16;51.80;;;25.73;;
35552;SDS011;21656;46.054;13.614;2023-02-01T17:27:43;53.70;;;26.15;;
35552;SDS011;21656;46.054;13.614;2023-02-01T17:30:09;64.05;;;28.70;;
35552;SDS011;21656;46.054;13.614;2023-02-01T17:32:36;132.15;;;57.97;;
35552;SDS011;21656;46.054;13.614;2023-02-01T17:35:01;63.67;;;33.20;;
35552;SDS011;21656;46.054;13.614;2023-02-01T17:37:29;209.35;;;72.97;;
35552;SDS011;21656;46.054;13.614;2023-02-01T17:39:57;376.60;;;124.13;;
35552;SDS011;21656;46.054;13.614;2023-02-01T17:42:24;342.33;;;114.63;;
35552;SDS011;21656;46.054;13.614;2023-02-01T17:44:51;437.65;;;146.98;;
35552;SDS011;21656;46.054;13.614;2023-02-01T17:47:20;498.50;;;181.80;;
35552;SDS011;21656;46.054;13.614;2023-02-01T17:49:45;598.85;;;231.98;;
35552;SDS011;21656;46.054;13.614;2023-02-01T17:52:14;488.70;;;183.82;;
35552;SDS011;21656;46.054;13.614;2023-02-01T17:54:41;425.35;;;155.23;;
35552;SDS011;21656;46.054;13.614;2023-02-01T17:57:10;255.30;;;96.13;;
35552;SDS011;21656;46.054;13.614;2023-02-01T17:59:36;183.63;;;76.75;;
35552;SDS011;21656;46.054;13.614;2023-02-01T18:02:02;194.77;;;79.68;;
35552;SDS011;21656;46.054;13.614;2023-02-01T18:04:27;191.25;;;76.88;;
35552;SDS011;21656;46.054;13.614;2023-02-01T18:06:53;117.00;;;51.15;;
35552;SDS011;21656;46.054;13.614;2023-02-01T18:09:18;73.57;;;34.53;;
35552;SDS011;21656;46.054;13.614;2023-02-01T18:11:44;201.45;;;73.15;;
35552;SDS011;21656;46.054;13.614;2023-02-01T18:14:11;233.65;;;87.35;;
35552;SDS011;21656;46.054;13.614;2023-02-01T18:16:39;238.30;;;87.75;;
35552;SDS011;21656;46.054;13.614;2023-02-01T18:19:05;160.80;;;60.70;;
35552;SDS011;21656;46.054;13.614;2023-02-01T18:21:32;97.55;;;44.38;;
35552;SDS011;21656;46.054;13.614;2023-02-01T18:24:00;330.35;;;112.82;;
35552;SDS011;21656;46.054;13.614;2023-02-01T18:26:26;239.55;;;89.72;;
35552;SDS011;21656;46.054;13.614;2023-02-01T18:28:51;226.90;;;89.40;;
35552;SDS011;21656;46.054;13.614;2023-02-01T18:33:50;180.27;;;87.40;;
35552;SDS011;21656;46.054;13.614;2023-02-01T18:36:16;182.45;;;82.25;;
35552;SDS011;21656;46.054;13.614;2023-02-01T18:38:42;142.23;;;62.45;;
35552;SDS011;21656;46.054;13.614;2023-02-01T18:41:11;163.68;;;65.28;;
35552;SDS011;21656;46.054;13.614;2023-02-01T18:43:39;162.32;;;64.88;;
35552;SDS011;21656;46.054;13.614;2023-02-01T18:46:05;209.30;;;82.60;;
35552;SDS011;21656;46.054;13.614;2023-02-01T18:48:31;221.98;;;92.32;;
35552;SDS011;21656;46.054;13.614;2023-02-01T18:50:57;147.18;;;64.43;;
35552;SDS011;21656;46.054;13.614;2023-02-01T18:53:22;135.50;;;58.47;;
35552;SDS011;21656;46.054;13.614;2023-02-01T18:55:51;118.75;;;51.67;;
35552;SDS011;21656;46.054;13.614;2023-02-01T18:58:18;123.25;;;52.97;;
35552;SDS011;21656;46.054;13.614;2023-02-01T19:00:43;169.38;;;71.50;;
35552;SDS011;21656;46.054;13.614;2023-02-01T19:03:13;184.77;;;77.68;;
35552;SDS011;21656;46.054;13.614;2023-02-01T19:05:40;169.63;;;73.72;;
35552;SDS011;21656;46.054;13.614;2023-02-01T19:08:06;156.10;;;64.35;;
35552;SDS011;21656;46.054;13.614;2023-02-01T19:10:32;136.23;;;59.22;;
35552;SDS011;21656;46.054;13.614;2023-02-01T19:12:58;176.65;;;74.22;;
35552;SDS011;21656;46.054;13.614;2023-02-01T19:15:24;233.38;;;93.40;;
35552;SDS011;21656;46.054;13.614;2023-02-01T19:17:50;198.23;;;87.47;;
35552;SDS011;21656;46.054;13.614;2023-02-01T19:20:21;188.05;;;86.60;;
35552;SDS011;21656;46.054;13.614;2023-02-01T19:22:48;183.70;;;83.53;;
35552;SDS011;21656;46.054;13.614;2023-02-01T19:25:15;169.55;;;79.15;;
35552;SDS011;21656;46.054;13.614;2023-02-01T19:27:43;156.55;;;69.88;;
35552;SDS011;21656;46.054;13.614;2023-02-01T19:30:09;149.48;;;66.18;;
35552;SDS011;21656;46.054;13.614;2023-02-01T19:32:35;136.98;;;60.30;;
35552;SDS011;21656;46.054;13.614;2023-02-01T19:35:01;123.80;;;59.08;;
35552;SDS011;21656;46.054;13.614;2023-02-01T19:37:27;96.32;;;45.58;;
35552;SDS011;21656;46.054;13.614;2023-02-01T19:39:52;98.20;;;43.17;;
35552;SDS011;21656;46.054;13.614;2023-02-01T19:42:17;109.05;;;53.35;;
35552;SDS011;21656;46.054;13.614;2023-02-01T19:44:43;119.05;;;56.17;;
35552;SDS011;21656;46.054;13.614;2023-02-01T19:47:09;112.57;;;53.65;;
35552;SDS011;21656;46.054;13.614;2023-02-01T19:49:34;105.18;;;51.22;;
35552;SDS011;21656;46.054;13.614;2023-02-01T19:52:00;102.53;;;47.60;;
35552;SDS011;21656;46.054;13.614;2023-02-01T19:54:26;94.65;;;45.05;;
35552;SDS011;21656;46.054;13.614;2023-02-01T19:56:51;91.60;;;43.35;;
35552;SDS011;21656;46.054;13.614;2023-02-01T19:59:17;96.07;;;43.15;;
35552;SDS011;21656;46.054;13.614;2023-02-01T20:01:43;98.40;;;47.35;;
35552;SDS011;21656;46.054;13.614;2023-02-01T20:04:11;118.47;;;54.35;;
35552;SDS011;21656;46.054;13.614;2023-02-01T20:06:39;105.88;;;53.65;;
35552;SDS011;21656;46.054;13.614;2023-02-01T20:09:05;127.82;;;59.00;;
35552;SDS011;21656;46.054;13.614;2023-02-01T20:11:31;147.10;;;67.05;;
35552;SDS011;21656;46.054;13.614;2023-02-01T20:13:57;134.88;;;62.63;;
35552;SDS011;21656;46.054;13.614;2023-02-01T20:16:25;115.70;;;56.38;;
35552;SDS011;21656;46.054;13.614;2023-02-01T20:18:51;89.90;;;46.53;;
35552;SDS011;21656;46.054;13.614;2023-02-01T20:21:16;98.60;;;47.72;;
35552;SDS011;21656;46.054;13.614;2023-02-01T20:23:43;90.43;;;43.75;;
35552;SDS011;21656;46.054;13.614;2023-02-01T20:26:11;87.95;;;45.58;;
35552;SDS011;21656;46.054;13.614;2023-02-01T20:28:38;92.90;;;44.38;;
35552;SDS011;21656;46.054;13.614;2023-02-01T20:31:04;81.65;;;41.35;;
35552;SDS011;21656;46.054;13.614;2023-02-01T20:33:31;78.57;;;40.95;;
35552;SDS011;21656;46.054;13.614;2023-02-01T20:35:57;83.80;;;41.03;;
35552;SDS011;21656;46.054;13.614;2023-02-01T20:38:23;87.57;;;43.03;;
35552;SDS011;21656;46.054;13.614;2023-02-01T20:40:48;84.53;;;42.05;;
35552;SDS011;21656;46.054;13.614;2023-02-01T20:43:14;81.00;;;40.28;;
35552;SDS011;21656;46.054;13.614;2023-02-01T20:45:40;77.32;;;38.92;;
35552;SDS011;21656;46.054;13.614;2023-02-01T20:48:06;82.88;;;39.10;;
35552;SDS011;21656;46.054;13.614;2023-02-01T20:50:33;84.13;;;40.17;;
35552;SDS011;21656;46.054;13.614;2023-02-01T20:53:00;80.70;;;40.10;;
35552;SDS011;21656;46.054;13.614;2023-02-01T20:55:26;83.97;;;42.47;;
35552;SDS011;21656;46.054;13.614;2023-02-01T20:57:51;79.28;;;40.72;;
35552;SDS011;21656;46.054;13.614;2023-02-01T21:00:20;81.03;;;41.85;;
35552;SDS011;21656;46.054;13.614;2023-02-01T21:02:47;82.10;;;39.33;;
35552;SDS011;21656;46.054;13.614;2023-02-01T21:05:13;88.68;;;39.00;;
35552;SDS011;21656;46.054;13.614;2023-02-01T21:07:40;82.60;;;39.05;;
35552;SDS011;21656;46.054;13.614;2023-02-01T21:10:06;76.35;;;38.65;;
35552;SDS011;21656;46.054;13.614;2023-02-01T21:12:35;76.13;;;39.00;;
35552;SDS011;21656;46.054;13.614;2023-02-01T21:15:02;80.38;;;38.40;;
35552;SDS011;21656;46.054;13.614;2023-02-01T21:17:29;77.93;;;38.63;;
35552;SDS011;21656;46.054;13.614;2023-02-01T21:19:55;81.18;;;39.88;;
35552;SDS011;21656;46.054;13.614;2023-02-01T21:22:22;93.18;;;42.95;;
35552;SDS011;21656;46.054;13.614;2023-02-01T21:24:47;102.70;;;45.95;;
35552;SDS011;21656;46.054;13.614;2023-02-01T21:27:13;105.35;;;48.17;;
35552;SDS011;21656;46.054;13.614;2023-02-01T21:29:38;101.50;;;51.80;;
35552;SDS011;21656;46.054;13.614;2023-02-01T21:32:05;87.93;;;43.10;;
35552;SDS011;21656;46.054;13.614;2023-02-01T21:34:32;83.55;;;39.45;;
35552;SDS011;21656;46.054;13.614;2023-02-01T21:36:58;76.30;;;38.28;;
35552;SDS011;21656;46.054;13.614;2023-02-01T21:39:23;94.22;;;42.15;;
35552;SDS011;21656;46.054;13.614;2023-02-01T21:41:51;98.85;;;46.00;;
35552;SDS011;21656;46.054;13.614;2023-02-01T21:44:35;98.90;;;46.63;;
35552;SDS011;21656;46.054;13.614;2023-02-01T21:47:00;92.03;;;44.55;;
35552;SDS011;21656;46.054;13.614;2023-02-01T21:49:26;94.03;;;44.95;;
35552;SDS011;21656;46.054;13.614;2023-02-01T21:51:53;90.70;;;43.83;;
35552;SDS011;21656;46.054;13.614;2023-02-01T21:54:19;96.53;;;42.85;;
35552;SDS011;21656;46.054;13.614;2023-02-01T21:56:44;88.85;;;44.63;;
35552;SDS011;21656;46.054;13.614;2023-02-01T21:59:10;95.65;;;47.30;;
35552;SDS011;21656;46.054;13.614;2023-02-01T22:01:36;93.80;;;46.58;;
35552;SDS011;21656;46.054;13.614;2023-02-01T22:04:02;100.78;;;46.28;;
35552;SDS011;21656;46.054;13.614;2023-02-01T22:06:29;88.78;;;40.88;;
35552;SDS011;21656;46.054;13.614;2023-02-01T22:08:58;84.30;;;42.92;;
35552;SDS011;21656;46.054;13.614;2023-02-01T22:11:23;87.57;;;42.70;;
35552;SDS011;21656;46.054;13.614;2023-02-01T22:13:49;91.97;;;43.03;;
35552;SDS011;21656;46.054;13.614;2023-02-01T22:16:15;86.75;;;41.85;;
35552;SDS011;21656;46.054;13.614;2023-02-01T22:18:45;80.00;;;40.10;;
35552;SDS011;21656;46.054;13.614;2023-02-01T22:21:11;88.63;;;40.30;;
35552;SDS011;21656;46.054;13.614;2023-02-01T22:23:37;76.15;;;39.13;;
35552;SDS011;21656;46.054;13.614;2023-02-01T22:26:03;79.60;;;37.83;;
35552;SDS011;21656;46.054;13.614;2023-02-01T22:28:36;75.10;;;38.67;;
35552;SDS011;21656;46.054;13.614;2023-02-01T22:31:03;71.80;;;36.78;;
35552;SDS011;21656;46.054;13.614;2023-02-01T22:33:31;76.38;;;37.22;;
35552;SDS011;21656;46.054;13.614;2023-02-01T22:35:57;78.20;;;35.78;;
35552;SDS011;21656;46.054;13.614;2023-02-01T22:38:23;71.68;;;35.00;;
35552;SDS011;21656;46.054;13.614;2023-02-01T22:40:52;69.85;;;35.65;;
35552;SDS011;21656;46.054;13.614;2023-02-01T22:43:22;89.80;;;39.43;;
35552;SDS011;21656;46.054;13.614;2023-02-01T22:45:47;100.90;;;45.90;;
